NCAR-RAP Real-Time Weather Data

Output produced by METARs form (26 May 2022  07:44 UTC)
found at http://weather.rap.ucar.edu/surface/
 
VVPQ 260730Z 28009KT 250V320 9999 SCT015 31/25 Q1006 NOSIG
VVPQ 260700Z 28010KT 9999 SCT015 32/25 Q1006 NOSIG
VVPQ 260630Z 28011KT 250V310 9999 SCT015 32/25 Q1007 NOSIG
VVPQ 260600Z 28012KT 9999 SCT015 31/25 Q1007 NOSIG
VVPQ 260530Z 28013KT 9999 SCT015 32/25 Q1008 NOSIG
VVPQ 260500Z 29012KT 9999 SCT015 32/25 Q1008 NOSIG
VVPQ 260430Z 28014KT 9999 SCT015 32/25 Q1009 NOSIG
VVPQ 260400Z 28013KT 9999 SCT015 32/25 Q1009 NOSIG
VVPQ 260330Z 28011KT 9999 SCT015 32/25 Q1009 NOSIG
VVPQ 260300Z 29012KT 9999 SCT015 32/24 Q1009 NOSIG
VVPQ 260230Z 28012KT 240V300 9999 SCT015 31/24 Q1009 NOSIG
VVPQ 260200Z 28011KT 9999 SCT015 32/25 Q1009 NOSIG
VVPQ 260130Z 27011KT 9999 SCT015 31/25 Q1009 NOSIG
VVPQ 260100Z 27011KT 9999 SCT015 30/25 Q1008 NOSIG
VVPQ 260030Z 27010KT 9999 FEW015 30/25 Q1008 NOSIG
VVPQ 260000Z 26011KT 9999 FEW015 30/25 Q1008 NOSIG
VVPQ 252330Z 27010KT 9999 FEW015 29/25 Q1007 NOSIG
VVPQ 252300Z 28012KT 9999 FEW015 29/24 Q1007 NOSIG
VVPQ 252230Z 27011KT 9999 FEW015 29/25 Q1007 NOSIG
VVPQ 252200Z 28009KT 9999 FEW015 29/25 Q1007 NOSIG
VVPQ 252130Z 28010KT 9999 FEW015 29/25 Q1007 NOSIG
VVPQ 252100Z 27011KT 9999 FEW015 29/24 Q1007 NOSIG
VVPQ 252030Z 27010KT 9999 FEW015 29/24 Q1007 NOSIG
VVPQ 252000Z 28010KT 9999 FEW015 29/24 Q1007 NOSIG